createdAt,value
2018-09-08T00:00:13.970Z,22.29
2018-09-08T00:01:13.882Z,22.27
2018-09-08T00:02:13.889Z,22.25
2018-09-08T00:03:13.817Z,22.28
2018-09-08T00:04:13.842Z,22.28
2018-09-08T00:05:13.824Z,22.24
2018-09-08T00:06:13.978Z,22.28
2018-09-08T00:07:13.761Z,22.29
2018-09-08T00:08:13.787Z,22.27
2018-09-08T00:09:13.859Z,22.28
2018-09-08T00:10:14.072Z,22.29
2018-09-08T00:11:13.840Z,22.25
2018-09-08T00:12:13.858Z,22.27
2018-09-08T00:13:13.866Z,22.25
2018-09-08T00:14:14.100Z,22.24
2018-09-08T00:15:13.797Z,22.27
2018-09-08T00:16:13.835Z,22.24
2018-09-08T00:17:13.786Z,22.24
2018-09-08T00:18:13.841Z,22.27
2018-09-08T00:19:13.988Z,22.26
2018-09-08T00:20:14.005Z,22.25
2018-09-08T00:21:13.990Z,22.25
2018-09-08T00:22:13.843Z,22.24
2018-09-08T00:23:13.879Z,22.26
2018-09-08T00:24:13.807Z,22.27
2018-09-08T00:25:13.985Z,22.25
2018-09-08T00:26:14.068Z,22.28
2018-09-08T00:27:13.778Z,22.26
2018-09-08T00:28:13.780Z,22.26
2018-09-08T00:29:13.981Z,22.26
2018-09-08T00:30:13.999Z,22.26
2018-09-08T00:31:13.797Z,22.26
2018-09-08T00:32:13.929Z,22.27
2018-09-08T00:33:13.948Z,22.25
2018-09-08T00:34:13.852Z,22.23
2018-09-08T00:35:14.053Z,22.25
2018-09-08T00:36:13.779Z,22.24
2018-09-08T00:37:13.945Z,22.25
2018-09-08T00:38:13.831Z,22.25
2018-09-08T00:39:13.901Z,22.23
2018-09-08T00:40:13.976Z,22.25
2018-09-08T00:41:14.030Z,22.24
2018-09-08T00:42:13.856Z,22.24
2018-09-08T00:43:14.010Z,22.21
2018-09-08T00:44:13.853Z,22.2
2018-09-08T00:45:13.889Z,22.23
2018-09-08T00:46:14.006Z,22.26
2018-09-08T00:47:13.854Z,22.22
2018-09-08T00:48:14.034Z,22.25
2018-09-08T00:49:13.817Z,22.24
2018-09-08T00:50:13.982Z,22.25
2018-09-08T00:51:14.022Z,22.23
2018-09-08T00:52:13.714Z,22.25
2018-09-08T00:53:14.013Z,22.23
2018-09-08T00:54:14.075Z,22.25
2018-09-08T00:55:14.053Z,22.24
2018-09-08T00:56:14.000Z,22.24
2018-09-08T00:57:13.955Z,22.24
2018-09-08T00:58:13.906Z,22.22
2018-09-08T00:59:14.119Z,22.24
2018-09-08T01:00:14.111Z,22.22
2018-09-08T01:01:14.037Z,22.25
2018-09-08T01:02:13.782Z,22.24
2018-09-08T01:03:14.011Z,22.25
2018-09-08T01:04:13.887Z,22.25
2018-09-08T01:05:14.047Z,22.25
2018-09-08T01:06:14.022Z,22.23
2018-09-08T01:07:14.044Z,22.23
2018-09-08T01:08:13.938Z,22.23
2018-09-08T01:09:13.860Z,22.24
2018-09-08T01:10:14.197Z,22.23
2018-09-08T01:11:13.877Z,22.24
2018-09-08T01:12:14.084Z,22.24
2018-09-08T01:13:13.836Z,22.24
2018-09-08T01:14:13.957Z,22.22
2018-09-08T01:15:13.870Z,22.21
2018-09-08T01:16:13.923Z,22.24
2018-09-08T01:17:14.017Z,22.23
2018-09-08T01:18:13.807Z,22.21
2018-09-08T01:19:13.867Z,22.23
2018-09-08T01:20:13.947Z,22.23
2018-09-08T01:21:13.953Z,22.23
2018-09-08T01:22:13.654Z,22.23
2018-09-08T01:23:14.064Z,22.21
2018-09-08T01:24:13.956Z,22.22
2018-09-08T01:25:13.837Z,22.21
2018-09-08T01:26:14.029Z,22.19
2018-09-08T01:27:13.770Z,22.19
2018-09-08T01:28:14.022Z,22.21
2018-09-08T01:29:13.926Z,22.2
2018-09-08T01:30:13.755Z,22.22
2018-09-08T01:31:14.012Z,22.21
2018-09-08T01:32:13.875Z,22.2
2018-09-08T01:33:13.847Z,22.21
2018-09-08T01:34:14.002Z,22.2
2018-09-08T01:35:13.866Z,22.22
2018-09-08T01:36:13.933Z,22.22
2018-09-08T01:37:13.931Z,22.22
2018-09-08T01:38:13.877Z,22.23
2018-09-08T01:39:13.977Z,22.22
2018-09-08T01:40:13.875Z,22.22
2018-09-08T01:41:13.954Z,22.2
2018-09-08T01:42:13.861Z,22.2
2018-09-08T01:43:13.849Z,22.19
2018-09-08T01:44:13.919Z,22.23
2018-09-08T01:45:13.745Z,22.21
2018-09-08T01:46:14.027Z,22.19
2018-09-08T01:47:13.760Z,22.19
2018-09-08T01:48:14.022Z,22.19
2018-09-08T01:49:13.876Z,22.22
2018-09-08T01:50:14.164Z,22.2
2018-09-08T01:51:14.000Z,22.2
2018-09-08T01:52:14.031Z,22.2
2018-09-08T01:53:13.911Z,22.18
2018-09-08T01:54:13.965Z,22.2
2018-09-08T01:55:13.917Z,22.21
2018-09-08T01:56:13.802Z,22.2
2018-09-08T01:57:13.724Z,22.2
2018-09-08T01:58:14.118Z,22.19
2018-09-08T01:59:13.896Z,22.21
2018-09-08T02:00:13.987Z,22.21
2018-09-08T02:01:14.178Z,22.19
2018-09-08T02:02:13.913Z,22.18
2018-09-08T02:03:13.913Z,22.19
2018-09-08T02:04:13.995Z,22.2
2018-09-08T02:05:14.204Z,22.2
2018-09-08T02:06:13.756Z,22.21
2018-09-08T02:07:14.021Z,22.2
2018-09-08T02:08:13.708Z,22.19
2018-09-08T02:09:13.815Z,22.2
2018-09-08T02:10:13.708Z,22.19
2018-09-08T02:11:14.000Z,22.21
2018-09-08T02:12:14.021Z,22.16
2018-09-08T02:13:13.885Z,22.19
2018-09-08T02:14:13.824Z,22.17
2018-09-08T02:15:14.027Z,22.17
2018-09-08T02:16:14.126Z,22.18
2018-09-08T02:17:13.815Z,22.19
2018-09-08T02:18:14.060Z,22.2
2018-09-08T02:19:13.872Z,22.2
2018-09-08T02:20:13.831Z,22.2
2018-09-08T02:21:14.004Z,22.17
2018-09-08T02:22:13.990Z,22.19
2018-09-08T02:23:13.976Z,22.19
2018-09-08T02:24:14.115Z,22.21
2018-09-08T02:25:14.123Z,22.21
2018-09-08T02:26:13.648Z,22.2
2018-09-08T02:27:13.846Z,22.19
2018-09-08T02:28:14.054Z,22.18
2018-09-08T02:29:14.013Z,22.19
2018-09-08T02:30:13.745Z,22.21
2018-09-08T02:31:14.147Z,22.19
2018-09-08T02:32:13.887Z,22.18
2018-09-08T02:33:13.666Z,22.17
2018-09-08T02:34:13.782Z,22.19
2018-09-08T02:35:13.813Z,22.19
2018-09-08T02:36:13.822Z,22.18
2018-09-08T02:37:13.951Z,22.19
2018-09-08T02:38:13.796Z,22.19
2018-09-08T02:39:13.813Z,22.2
2018-09-08T02:40:13.885Z,22.19
2018-09-08T02:41:13.847Z,22.19
2018-09-08T02:42:13.826Z,22.19
2018-09-08T02:43:14.030Z,22.18
2018-09-08T02:44:13.926Z,22.18
2018-09-08T02:45:13.913Z,22.18
2018-09-08T02:46:13.773Z,22.19
2018-09-08T02:47:13.767Z,22.17
2018-09-08T02:48:14.046Z,22.17
2018-09-08T02:49:13.882Z,22.18
2018-09-08T02:50:13.940Z,22.17
2018-09-08T02:51:13.888Z,22.19
2018-09-08T02:52:13.954Z,22.18
2018-09-08T02:53:14.007Z,22.19
2018-09-08T02:54:13.983Z,22.18
2018-09-08T02:55:13.778Z,22.19
2018-09-08T02:56:13.837Z,22.18
2018-09-08T02:57:13.956Z,22.19
2018-09-08T02:58:13.953Z,22.18
2018-09-08T02:59:13.881Z,22.19
2018-09-08T03:00:13.760Z,22.17
2018-09-08T03:01:13.990Z,22.19
2018-09-08T03:02:13.896Z,22.19
2018-09-08T03:03:13.958Z,22.18
2018-09-08T03:04:13.855Z,22.17
2018-09-08T03:05:13.847Z,22.18
2018-09-08T03:06:14.100Z,22.21
2018-09-08T03:07:14.185Z,22.18
2018-09-08T03:08:14.113Z,22.19
2018-09-08T03:09:14.020Z,22.18
2018-09-08T03:10:14.015Z,22.19
2018-09-08T03:11:13.927Z,22.19
2018-09-08T03:12:13.836Z,22.17
2018-09-08T03:13:14.033Z,22.18
2018-09-08T03:14:13.781Z,22.16
2018-09-08T03:15:14.138Z,22.17
2018-09-08T03:16:13.915Z,22.17
2018-09-08T03:17:13.906Z,22.19
2018-09-08T03:18:14.138Z,22.14
2018-09-08T03:19:13.856Z,22.16
2018-09-08T03:20:13.909Z,22.16
2018-09-08T03:21:13.699Z,22.17
2018-09-08T03:22:13.680Z,22.17
2018-09-08T03:23:13.886Z,22.14
2018-09-08T03:24:13.742Z,22.16
2018-09-08T03:25:13.669Z,22.18
2018-09-08T03:26:13.739Z,22.16
2018-09-08T03:27:13.745Z,22.17
2018-09-08T03:28:14.194Z,22.14
2018-09-08T03:29:13.911Z,22.16
2018-09-08T03:30:13.859Z,22.17
2018-09-08T03:31:13.937Z,22.14
2018-09-08T03:32:13.955Z,22.14
2018-09-08T03:33:13.730Z,22.17
2018-09-08T03:34:13.758Z,22.13
2018-09-08T03:35:13.949Z,22.12
2018-09-08T03:36:13.895Z,22.13
2018-09-08T03:37:13.861Z,22.12
2018-09-08T03:38:14.064Z,22.14
2018-09-08T03:39:14.155Z,22.16
2018-09-08T03:40:14.000Z,22.14
2018-09-08T03:41:13.885Z,22.16
2018-09-08T03:42:13.973Z,22.16
2018-09-08T03:43:13.947Z,22.16
2018-09-08T03:44:13.902Z,22.16
2018-09-08T03:45:14.247Z,22.14
2018-09-08T03:46:13.739Z,22.16
2018-09-08T03:47:13.807Z,22.13
2018-09-08T03:48:13.826Z,22.16
2018-09-08T03:49:13.766Z,22.14
2018-09-08T03:50:13.691Z,22.13
2018-09-08T03:51:14.034Z,22.13
2018-09-08T03:52:13.965Z,22.14
2018-09-08T03:53:13.847Z,22.14
2018-09-08T03:54:13.978Z,22.14
2018-09-08T03:55:13.789Z,22.12
2018-09-08T03:56:13.931Z,22.14
2018-09-08T03:57:13.994Z,22.14
2018-09-08T03:58:13.862Z,22.11
2018-09-08T03:59:13.893Z,22.13
2018-09-08T04:00:13.733Z,22.16
2018-09-08T04:01:14.118Z,22.12
2018-09-08T04:02:13.838Z,22.14
2018-09-08T04:03:13.834Z,22.11
2018-09-08T04:04:13.889Z,22.1
2018-09-08T04:05:13.821Z,22.11
2018-09-08T04:06:13.917Z,22.11
2018-09-08T04:07:13.973Z,22.13
2018-09-08T04:08:13.996Z,22.12
2018-09-08T04:09:13.941Z,22.13
2018-09-08T04:10:14.152Z,22.14
2018-09-08T04:11:13.982Z,22.13
2018-09-08T04:12:13.801Z,22.14
2018-09-08T04:13:13.876Z,22.11
2018-09-08T04:14:13.957Z,22.14
2018-09-08T04:15:13.717Z,22.12
2018-09-08T04:16:13.967Z,22.1
2018-09-08T04:17:13.913Z,22.1
2018-09-08T04:18:14.497Z,22.13
2018-09-08T04:19:13.580Z,22.12
2018-09-08T04:20:14.015Z,22.12
2018-09-08T04:21:13.918Z,22.13
2018-09-08T04:22:13.983Z,22.12
2018-09-08T04:23:13.938Z,22.13
2018-09-08T04:24:13.860Z,22.16
2018-09-08T04:25:13.849Z,22.12
2018-09-08T04:26:14.135Z,22.11
2018-09-08T04:27:13.620Z,22.13
2018-09-08T04:28:13.828Z,22.13
2018-09-08T04:29:13.833Z,22.11
2018-09-08T04:30:13.836Z,22.14
2018-09-08T04:31:13.696Z,22.11
2018-09-08T04:32:13.897Z,22.11
2018-09-08T04:33:13.802Z,22.09
2018-09-08T04:34:13.951Z,22.11
2018-09-08T04:35:13.956Z,22.12
2018-09-08T04:36:13.889Z,22.11
2018-09-08T04:37:14.042Z,22.11
2018-09-08T04:38:13.998Z,22.1
2018-09-08T04:39:14.025Z,22.09
2018-09-08T04:40:13.825Z,22.1
2018-09-08T04:41:13.865Z,22.1
2018-09-08T04:42:13.862Z,22.11
2018-09-08T04:43:14.017Z,22.11
2018-09-08T04:44:13.775Z,22.11
2018-09-08T04:45:14.210Z,22.11
2018-09-08T04:46:14.012Z,22.1
2018-09-08T04:47:14.131Z,22.09
2018-09-08T04:48:13.925Z,22.09
2018-09-08T04:49:14.198Z,22.07
2018-09-08T04:50:13.951Z,22.09
2018-09-08T04:51:13.931Z,22.07
2018-09-08T04:52:13.941Z,22.07
2018-09-08T04:53:13.738Z,22.09
2018-09-08T04:54:13.965Z,22.09
2018-09-08T04:55:13.729Z,22.08
2018-09-08T04:56:13.756Z,22.06
2018-09-08T04:57:13.804Z,22.08
2018-09-08T04:58:13.946Z,22.08
2018-09-08T04:59:13.828Z,22.08
2018-09-08T05:00:14.225Z,22.08
2018-09-08T05:01:13.924Z,22.08
2018-09-08T05:02:13.850Z,22.07
2018-09-08T05:03:14.059Z,22.08
2018-09-08T05:04:13.889Z,22.07
2018-09-08T05:05:14.305Z,22.07
2018-09-08T05:06:13.954Z,22.07
2018-09-08T05:07:13.933Z,22.07
2018-09-08T05:08:14.213Z,22.08
2018-09-08T05:09:14.075Z,22.06
2018-09-08T05:10:13.664Z,22.07
2018-09-08T05:11:13.961Z,22.05
2018-09-08T05:12:13.952Z,22.04
2018-09-08T05:13:13.823Z,22.05
2018-09-08T05:14:13.781Z,22.06
2018-09-08T05:15:13.984Z,22.05
2018-09-08T05:16:14.433Z,22.06
2018-09-08T05:17:14.200Z,22.05
2018-09-08T05:18:13.986Z,22.06
2018-09-08T05:19:13.729Z,22.03
2018-09-08T05:20:13.796Z,22.06
2018-09-08T05:21:13.905Z,22.05
2018-09-08T05:22:13.897Z,22.06
2018-09-08T05:23:13.942Z,22.05
2018-09-08T05:24:13.848Z,22.05
2018-09-08T05:25:14.032Z,22.05
2018-09-08T05:26:13.798Z,22.04
2018-09-08T05:27:13.729Z,22.05
2018-09-08T05:28:13.843Z,22.05
2018-09-08T05:29:13.848Z,22.05
2018-09-08T05:30:13.866Z,22.05
2018-09-08T05:31:13.797Z,22.05
2018-09-08T05:32:13.818Z,22.04
2018-09-08T05:33:13.984Z,22.05
2018-09-08T05:34:14.098Z,22.07
2018-09-08T05:35:13.896Z,22.04
2018-09-08T05:36:13.781Z,22.06
2018-09-08T05:37:13.870Z,22.04
2018-09-08T05:38:13.855Z,22.05
2018-09-08T05:39:13.971Z,22.04
2018-09-08T05:40:14.013Z,22.06
2018-09-08T05:41:14.257Z,22.05
2018-09-08T05:42:13.974Z,22.06
2018-09-08T05:43:13.801Z,22.02
2018-09-08T05:44:13.870Z,22.06
2018-09-08T05:45:14.035Z,22.07
2018-09-08T05:46:13.879Z,22.07
2018-09-08T05:47:13.929Z,22.05
2018-09-08T05:48:13.841Z,22.07
2018-09-08T05:49:13.990Z,22.05
2018-09-08T05:50:14.055Z,22.05
2018-09-08T05:51:14.264Z,22.05
2018-09-08T05:52:13.912Z,22.04
2018-09-08T05:53:14.768Z,22.05
2018-09-08T05:54:13.746Z,22.04
2018-09-08T05:55:13.878Z,22.05
2018-09-08T05:56:14.035Z,22.03
2018-09-08T05:57:13.897Z,22.04
2018-09-08T05:58:13.931Z,22.04
2018-09-08T05:59:13.813Z,22.05
2018-09-08T06:00:13.970Z,22.03
2018-09-08T06:01:14.042Z,22.05
2018-09-08T06:02:13.933Z,22.02
2018-09-08T06:03:14.368Z,22.04
2018-09-08T06:04:13.649Z,22.06
2018-09-08T06:05:14.014Z,22.04
2018-09-08T06:06:13.826Z,22.05
2018-09-08T06:07:14.063Z,22.04
2018-09-08T06:08:13.949Z,22.04
2018-09-08T06:09:14.014Z,22.04
2018-09-08T06:10:14.218Z,22.04
2018-09-08T06:11:13.916Z,22.02
2018-09-08T06:12:13.819Z,22.04
2018-09-08T06:13:13.799Z,22.04
2018-09-08T06:14:14.012Z,22.02
2018-09-08T06:15:13.872Z,22.05
2018-09-08T06:16:13.773Z,22.03
2018-09-08T06:17:13.861Z,22.02
2018-09-08T06:18:14.427Z,22.01
2018-09-08T06:19:13.891Z,22.03
2018-09-08T06:20:13.784Z,22.04
2018-09-08T06:21:13.697Z,22.05
2018-09-08T06:22:13.901Z,22.03
2018-09-08T06:23:13.793Z,22.05
2018-09-08T06:24:14.007Z,22.05
2018-09-08T06:25:14.119Z,22.04
2018-09-08T06:26:14.004Z,22.04
2018-09-08T06:27:13.855Z,22.04
2018-09-08T06:28:13.958Z,22.05
2018-09-08T06:29:13.738Z,22.03
2018-09-08T06:30:13.924Z,22.05
2018-09-08T06:31:13.727Z,22.04
2018-09-08T06:32:13.840Z,22.04
2018-09-08T06:33:13.671Z,22.04
2018-09-08T06:34:13.948Z,22.05
2018-09-08T06:35:14.425Z,22.05
2018-09-08T06:36:13.977Z,22.04
2018-09-08T06:37:13.768Z,22.03
2018-09-08T06:38:13.869Z,22.02
2018-09-08T06:39:13.836Z,22.01
2018-09-08T06:40:13.826Z,22.01
2018-09-08T06:41:13.913Z,21.99
2018-09-08T06:42:13.704Z,22.01
2018-09-08T06:43:13.891Z,22.01
2018-09-08T06:44:13.844Z,22.02
2018-09-08T06:45:14.507Z,22.05
2018-09-08T06:46:13.905Z,22.02
2018-09-08T06:47:13.735Z,22.03
2018-09-08T06:48:13.867Z,22.04
2018-09-08T06:49:13.664Z,21.98
2018-09-08T06:50:13.705Z,22.02
2018-09-08T06:51:13.695Z,22.02
2018-09-08T06:52:14.162Z,22.01
2018-09-08T06:53:13.697Z,22.03
2018-09-08T06:54:13.914Z,22.01
2018-09-08T06:55:13.730Z,22.01
2018-09-08T06:56:13.701Z,22.02
2018-09-08T06:57:13.906Z,22.02
2018-09-08T06:58:13.831Z,21.98
2018-09-08T06:59:13.905Z,21.99
2018-09-08T07:00:13.904Z,22.01
2018-09-08T07:01:13.793Z,22.02
2018-09-08T07:02:13.825Z,22.02
2018-09-08T07:03:14.293Z,22.01
2018-09-08T07:04:13.937Z,21.99
2018-09-08T07:05:13.827Z,21.99
2018-09-08T07:06:13.847Z,22.03
2018-09-08T07:07:13.793Z,22.02
2018-09-08T07:08:13.795Z,21.98
2018-09-08T07:09:13.766Z,21.97
2018-09-08T07:10:13.913Z,22.03
2018-09-08T07:11:13.757Z,22.01
2018-09-08T07:12:13.823Z,21.99
2018-09-08T07:13:14.724Z,22.02
2018-09-08T07:14:13.871Z,22.01
2018-09-08T07:15:14.296Z,22.01
2018-09-08T07:16:13.792Z,22.02
2018-09-08T07:17:13.852Z,22.01
2018-09-08T07:18:13.696Z,22.01
2018-09-08T07:19:13.794Z,22.02
2018-09-08T07:20:13.876Z,22.01
2018-09-08T07:21:13.806Z,22.01
2018-09-08T07:22:13.802Z,22.01
2018-09-08T07:23:13.813Z,22.01
2018-09-08T07:24:13.939Z,21.99
2018-09-08T07:25:13.718Z,21.99
2018-09-08T07:26:13.882Z,21.98
2018-09-08T07:27:13.662Z,22.01
2018-09-08T07:28:13.951Z,22.01
2018-09-08T07:29:13.668Z,21.99
2018-09-08T07:30:13.739Z,21.98
2018-09-08T07:31:13.854Z,22.01
2018-09-08T07:32:14.055Z,22.02
2018-09-08T07:33:13.751Z,21.98
2018-09-08T07:34:13.846Z,21.99
2018-09-08T07:35:13.805Z,21.97
2018-09-08T07:36:13.769Z,21.97
2018-09-08T07:37:14.066Z,21.99
2018-09-08T07:38:13.824Z,21.98
2018-09-08T07:39:13.807Z,21.97
2018-09-08T07:40:13.866Z,21.98
2018-09-08T07:41:13.912Z,21.97
2018-09-08T07:42:13.901Z,21.99
2018-09-08T07:43:13.966Z,21.99
2018-09-08T07:44:13.917Z,21.96
2018-09-08T07:45:13.856Z,21.98
2018-09-08T07:46:13.915Z,21.99
2018-09-08T07:47:13.849Z,21.97
2018-09-08T07:48:13.876Z,21.99
2018-09-08T07:49:13.798Z,21.97
2018-09-08T07:50:13.843Z,21.96
2018-09-08T07:51:13.921Z,21.99
2018-09-08T07:52:13.612Z,21.97
2018-09-08T07:53:14.134Z,21.99
2018-09-08T07:54:13.830Z,21.99
2018-09-08T07:55:13.790Z,21.98
2018-09-08T07:56:14.126Z,21.97
2018-09-08T07:57:13.884Z,21.97
2018-09-08T07:58:13.776Z,21.99
2018-09-08T07:59:14.186Z,21.97
2018-09-08T08:00:13.876Z,21.98
2018-09-08T08:01:13.959Z,21.97
2018-09-08T08:02:13.737Z,21.95
2018-09-08T08:03:13.912Z,21.97
2018-09-08T08:04:13.832Z,21.96
2018-09-08T08:05:13.874Z,21.96
2018-09-08T08:06:13.843Z,21.98
2018-09-08T08:07:13.789Z,21.98
2018-09-08T08:08:13.803Z,21.97
2018-09-08T08:09:14.561Z,21.97
2018-09-08T08:10:13.713Z,21.97
2018-09-08T08:11:13.674Z,21.96
2018-09-08T08:12:13.796Z,21.97
2018-09-08T08:13:13.710Z,21.97
2018-09-08T08:14:13.563Z,21.98
2018-09-08T08:15:13.762Z,21.97
2018-09-08T08:16:13.778Z,21.97
2018-09-08T08:17:13.695Z,21.97
2018-09-08T08:18:13.690Z,21.96
2018-09-08T08:19:13.733Z,21.96
2018-09-08T08:20:14.300Z,22.01
2018-09-08T08:21:13.654Z,22.01
2018-09-08T08:22:13.771Z,21.97
2018-09-08T08:23:14.275Z,21.99
2018-09-08T08:24:13.787Z,21.97
2018-09-08T08:25:14.308Z,21.97
2018-09-08T08:26:13.748Z,21.98
2018-09-08T08:27:13.985Z,21.99
2018-09-08T08:28:13.808Z,21.97
2018-09-08T08:29:13.901Z,21.97
2018-09-08T08:30:13.686Z,21.98
2018-09-08T08:31:14.079Z,21.97
2018-09-08T08:32:13.832Z,21.94
2018-09-08T08:33:13.657Z,21.97
2018-09-08T08:34:13.876Z,21.96
2018-09-08T08:35:14.004Z,21.97
2018-09-08T08:36:13.693Z,21.98
2018-09-08T08:37:14.254Z,21.97
2018-09-08T08:38:14.040Z,21.97
2018-09-08T08:39:13.844Z,21.97
2018-09-08T08:40:14.121Z,21.95
2018-09-08T08:41:13.823Z,21.96
2018-09-08T08:42:13.846Z,21.97
2018-09-08T08:43:14.142Z,21.96
2018-09-08T08:44:13.843Z,21.95
2018-09-08T08:45:13.853Z,21.99
2018-09-08T08:46:13.933Z,21.95
2018-09-08T08:47:13.851Z,21.89
2018-09-08T08:48:13.794Z,21.89
2018-09-08T08:49:13.907Z,21.89
2018-09-08T08:50:13.919Z,21.85
2018-09-08T08:51:14.186Z,21.85
2018-09-08T08:52:13.927Z,21.79
2018-09-08T08:53:13.902Z,21.73
2018-09-08T08:54:13.807Z,21.73
2018-09-08T08:55:13.878Z,21.74
2018-09-08T08:56:13.923Z,21.67
2018-09-08T08:57:13.760Z,21.62
2018-09-08T08:58:13.796Z,21.59
2018-09-08T08:59:14.035Z,21.54
2018-09-08T09:00:13.783Z,21.51
2018-09-08T09:01:13.890Z,21.57
2018-09-08T09:02:13.923Z,21.54
2018-09-08T09:03:13.682Z,21.53
2018-09-08T09:04:13.679Z,21.46
2018-09-08T09:05:13.868Z,21.43
2018-09-08T09:06:13.900Z,21.46
2018-09-08T09:07:16.958Z,21.46
2018-09-08T09:08:13.807Z,21.44
2018-09-08T09:09:13.882Z,21.43
2018-09-08T09:10:13.888Z,21.44
2018-09-08T09:11:14.066Z,21.4
2018-09-08T09:12:13.806Z,21.4
2018-09-08T09:13:14.271Z,21.37
2018-09-08T09:14:13.882Z,21.37
2018-09-08T09:15:16.387Z,21.39
2018-09-08T09:16:13.829Z,21.35
2018-09-08T09:17:13.727Z,21.34
2018-09-08T09:18:13.850Z,21.35
2018-09-08T09:19:13.824Z,21.33
2018-09-08T09:20:13.851Z,21.24
2018-09-08T09:21:13.692Z,21.24
2018-09-08T09:22:14.164Z,21.29
2018-09-08T09:23:15.176Z,21.24
2018-09-08T09:24:14.343Z,21.22
2018-09-08T09:25:14.107Z,21.29
2018-09-08T09:26:14.034Z,21.24
2018-09-08T09:27:13.819Z,21.23
2018-09-08T09:28:14.067Z,21.23
2018-09-08T09:29:13.704Z,21.21
2018-09-08T09:30:13.713Z,21.21
2018-09-08T09:31:13.626Z,21.21
2018-09-08T09:32:13.875Z,21.21
2018-09-08T09:33:13.892Z,21.21
2018-09-08T09:34:13.737Z,21.18
2018-09-08T09:35:13.936Z,21.18
2018-09-08T09:36:13.623Z,21.17
2018-09-08T09:37:14.169Z,21.11
2018-09-08T09:38:13.917Z,21.11
2018-09-08T09:39:13.869Z,21.11
2018-09-08T09:40:13.806Z,21.09
2018-09-08T09:41:13.681Z,21.01
2018-09-08T09:42:13.634Z,21.05
2018-09-08T09:43:13.757Z,21.09
2018-09-08T09:44:14.325Z,21.06
2018-09-08T09:45:13.735Z,21.08
2018-09-08T09:46:13.833Z,21.11
2018-09-08T09:47:13.814Z,21.13
2018-09-08T09:48:13.668Z,21.15
2018-09-08T09:49:13.748Z,21.14
2018-09-08T09:50:13.929Z,21.13
2018-09-08T09:51:13.880Z,21.05
2018-09-08T09:52:13.776Z,21.03
2018-09-08T09:53:14.359Z,21.06
2018-09-08T09:54:13.935Z,21.05
2018-09-08T09:55:13.959Z,21.06
2018-09-08T09:56:13.842Z,21.05
2018-09-08T09:57:14.308Z,21.02
2018-09-08T09:58:13.854Z,21.01
2018-09-08T09:59:13.811Z,21.01
2018-09-08T10:00:13.962Z,21.02
2018-09-08T10:01:13.906Z,20.98
2018-09-08T10:02:13.917Z,21
2018-09-08T10:03:13.781Z,21.06
2018-09-08T10:04:13.820Z,21.09
2018-09-08T10:05:13.865Z,21.09
2018-09-08T10:06:14.065Z,21.1
2018-09-08T10:07:14.006Z,21.1
2018-09-08T10:08:13.887Z,21.1
2018-09-08T10:09:13.880Z,21.08
2018-09-08T10:10:13.898Z,21.06
2018-09-08T10:11:13.837Z,21.05
2018-09-08T10:12:14.391Z,21.08
2018-09-08T10:13:13.802Z,21.08
2018-09-08T10:14:14.027Z,21.1
2018-09-08T10:15:13.795Z,21.11
2018-09-08T10:16:14.013Z,21.15
2018-09-08T10:17:13.617Z,21.17
2018-09-08T10:18:13.796Z,21.17
2018-09-08T10:19:13.641Z,21.19
2018-09-08T10:20:13.924Z,21.21
2018-09-08T10:21:13.968Z,21.21
2018-09-08T10:22:13.708Z,21.24
2018-09-08T10:23:14.240Z,21.25
2018-09-08T10:24:13.744Z,21.27
2018-09-08T10:25:13.950Z,21.29
2018-09-08T10:26:13.990Z,21.31
2018-09-08T10:27:13.884Z,21.32
2018-09-08T10:28:13.665Z,21.31
2018-09-08T10:29:13.810Z,21.33
2018-09-08T10:30:13.758Z,21.35
2018-09-08T10:31:14.219Z,21.35
2018-09-08T10:32:16.774Z,21.35
2018-09-08T10:33:14.067Z,21.36
2018-09-08T10:34:13.764Z,21.38
2018-09-08T10:35:13.805Z,21.38
2018-09-08T10:36:13.740Z,21.38
2018-09-08T10:37:14.039Z,21.42
2018-09-08T10:38:13.760Z,21.42
2018-09-08T10:39:14.099Z,21.4
2018-09-08T10:40:14.208Z,21.4
2018-09-08T10:41:13.769Z,21.42
2018-09-08T10:42:13.726Z,21.43
2018-09-08T10:43:14.142Z,21.44
2018-09-08T10:44:13.845Z,21.45
2018-09-08T10:45:13.736Z,21.43
2018-09-08T10:46:13.576Z,21.44
2018-09-08T10:47:13.801Z,21.44
2018-09-08T10:48:13.840Z,21.45
2018-09-08T10:49:13.677Z,21.45
2018-09-08T10:50:13.654Z,21.42
2018-09-08T10:51:13.779Z,21.43
2018-09-08T10:52:13.918Z,21.45
2018-09-08T10:53:13.711Z,21.44
2018-09-08T10:54:13.901Z,21.44
2018-09-08T10:55:13.798Z,21.45
2018-09-08T10:56:13.795Z,21.45
2018-09-08T10:57:13.730Z,21.43
2018-09-08T10:58:13.835Z,21.43
2018-09-08T10:59:13.617Z,21.43
2018-09-08T11:00:13.767Z,21.44
2018-09-08T11:01:13.962Z,21.43
2018-09-08T11:02:16.115Z,21.44
2018-09-08T11:03:13.813Z,21.44
2018-09-08T11:04:13.978Z,21.45
2018-09-08T11:05:13.770Z,21.44
2018-09-08T11:06:13.773Z,21.45
2018-09-08T11:07:13.688Z,21.43
2018-09-08T11:08:14.064Z,21.44
2018-09-08T11:09:14.033Z,21.44
2018-09-08T11:10:13.923Z,21.46
2018-09-08T11:11:13.849Z,21.44
2018-09-08T11:12:13.801Z,21.46
2018-09-08T11:13:13.833Z,21.44
2018-09-08T11:14:13.893Z,21.45
2018-09-08T11:15:13.885Z,21.46
2018-09-08T11:16:13.721Z,21.45
2018-09-08T11:17:13.914Z,21.46
2018-09-08T11:18:13.805Z,21.44
2018-09-08T11:19:13.776Z,21.45
2018-09-08T11:20:14.162Z,21.45
2018-09-08T11:21:13.813Z,21.44
2018-09-08T11:22:13.813Z,21.45
2018-09-08T11:23:13.812Z,21.46
2018-09-08T11:24:14.316Z,21.46
2018-09-08T11:25:13.648Z,21.44
2018-09-08T11:26:14.095Z,21.46
2018-09-08T11:27:13.977Z,21.45
2018-09-08T11:28:14.005Z,21.45
2018-09-08T11:29:13.831Z,21.44
2018-09-08T11:30:13.951Z,21.44
2018-09-08T11:31:13.944Z,21.47
2018-09-08T11:32:13.846Z,21.47
2018-09-08T11:33:13.828Z,21.46
2018-09-08T11:34:13.730Z,21.46
2018-09-08T11:35:13.873Z,21.45
2018-09-08T11:36:13.696Z,21.45
2018-09-08T11:37:13.911Z,21.44
2018-09-08T11:38:14.811Z,21.47
2018-09-08T11:39:13.799Z,21.45
2018-09-08T11:40:13.900Z,21.47
2018-09-08T11:41:13.638Z,21.48
2018-09-08T11:42:13.895Z,21.47
2018-09-08T11:43:13.649Z,21.48
2018-09-08T11:44:13.738Z,21.48
2018-09-08T11:45:13.812Z,21.5
2018-09-08T11:46:14.008Z,21.49
2018-09-08T11:47:13.836Z,21.52
2018-09-08T11:48:13.780Z,21.52
2018-09-08T11:49:13.628Z,21.53
2018-09-08T11:50:13.839Z,21.58
2018-09-08T11:51:13.830Z,21.58
2018-09-08T11:52:13.788Z,21.57
2018-09-08T11:53:13.900Z,21.6
2018-09-08T11:54:13.784Z,21.6
2018-09-08T11:55:13.756Z,21.6
2018-09-08T11:56:13.965Z,21.63
2018-09-08T11:57:13.933Z,21.63
2018-09-08T11:58:13.909Z,21.66
2018-09-08T11:59:13.843Z,21.64
2018-09-08T12:00:14.127Z,21.66
2018-09-08T12:01:14.058Z,21.66
2018-09-08T12:02:14.343Z,21.67
2018-09-08T12:03:13.867Z,21.69
2018-09-08T12:04:13.741Z,21.7
2018-09-08T12:05:14.010Z,21.73
2018-09-08T12:06:13.699Z,21.74
2018-09-08T12:07:13.772Z,21.75
2018-09-08T12:08:13.871Z,21.77
2018-09-08T12:09:13.981Z,21.78
2018-09-08T12:10:13.706Z,21.79
2018-09-08T12:11:13.713Z,21.8
2018-09-08T12:12:13.549Z,21.81
2018-09-08T12:13:13.850Z,21.79
2018-09-08T12:14:13.900Z,21.82
2018-09-08T12:15:13.828Z,21.83
2018-09-08T12:16:13.872Z,21.83
2018-09-08T12:17:13.810Z,21.83
2018-09-08T12:18:13.807Z,21.85
2018-09-08T12:19:14.546Z,21.87
2018-09-08T12:20:13.792Z,21.84
2018-09-08T12:21:13.778Z,21.82
2018-09-08T12:22:14.488Z,21.84
2018-09-08T12:23:13.761Z,21.87
2018-09-08T12:24:13.770Z,21.87
2018-09-08T12:25:17.222Z,21.89
2018-09-08T12:26:13.611Z,21.91
2018-09-08T12:27:13.788Z,21.91
2018-09-08T12:28:14.014Z,21.9
2018-09-08T12:29:13.842Z,21.9
2018-09-08T12:30:13.688Z,21.91
2018-09-08T12:31:13.697Z,21.91
2018-09-08T12:32:13.560Z,21.91
2018-09-08T12:33:13.749Z,21.89
2018-09-08T12:34:13.825Z,21.92
2018-09-08T12:35:13.992Z,21.93
2018-09-08T12:36:13.995Z,21.92
2018-09-08T12:37:14.482Z,21.94
2018-09-08T12:38:13.696Z,21.94
2018-09-08T12:39:13.842Z,21.95
2018-09-08T12:40:13.707Z,21.96
2018-09-08T12:41:13.782Z,21.95
2018-09-08T12:42:14.040Z,21.94
2018-09-08T12:43:13.547Z,21.94
2018-09-08T12:44:13.760Z,21.99
2018-09-08T12:45:13.824Z,21.98
2018-09-08T12:46:14.154Z,21.95
2018-09-08T12:47:13.895Z,21.97
2018-09-08T12:48:13.844Z,21.96
2018-09-08T12:49:13.740Z,21.96
2018-09-08T12:50:13.830Z,21.97
2018-09-08T12:51:13.850Z,22.03
2018-09-08T12:52:13.842Z,21.99
2018-09-08T12:53:14.151Z,22.02
2018-09-08T12:54:13.666Z,22.01